Loftus, United Kingdom
Current Conditions -  °F | °C
As of 9:20 PM on Wednesday 28 Jan 2015 (Local Time) from EGNV Reporting Station
Light Snow Light Snow  
Wind Chill: 28°   Ceiling: Unl
Heat Index: 36°   Visibility: 4mi
Dew Point: 30°   Wind: 10mph
Humidity: 81%   Direction: 260°W
Pressure: 29.21"   Gusts: NA
Location:  54.56°N, 0.89°W
Report Text: EGNV 282120Z 26009KT 7000 -RASN FEW015 SCT023 02/M01 Q0989
Loading
Personal Weather Stations






























Interactive Weather Map New forecast layout! Learn more

10-Day Weather Forecast

Advertisements
Track Severe Weather on mobile